createdAt,value
2018-07-19T00:02:07.798Z,13.80
2018-07-19T00:04:36.860Z,13.87
2018-07-19T00:07:06.206Z,14.40
2018-07-19T00:09:35.286Z,15.17
2018-07-19T00:12:04.348Z,14.10
2018-07-19T00:14:33.426Z,15.83
2018-07-19T00:17:02.482Z,14.87
2018-07-19T00:19:31.548Z,16.57
2018-07-19T00:22:00.619Z,16.40
2018-07-19T00:24:29.675Z,16.53
2018-07-19T00:26:58.727Z,16.50
2018-07-19T00:29:27.800Z,16.13
2018-07-19T00:31:56.919Z,16.53
2018-07-19T00:34:26.022Z,16.53
2018-07-19T00:36:55.107Z,17.17
2018-07-19T00:39:24.183Z,17.33
2018-07-19T00:41:53.266Z,19.07
2018-07-19T00:44:22.380Z,18.37
2018-07-19T00:46:51.456Z,19.17
2018-07-19T00:49:20.511Z,18.07
2018-07-19T00:51:49.595Z,19.17
2018-07-19T00:54:18.776Z,18.20
2018-07-19T00:56:47.926Z,17.43
2018-07-19T00:59:16.951Z,17.97
2018-07-19T01:01:46.760Z,19.33
2018-07-19T01:04:15.847Z,20.90
2018-07-19T01:06:44.931Z,21.33
2018-07-19T01:09:13.996Z,22.00
2018-07-19T01:11:43.078Z,22.53
2018-07-19T01:14:12.668Z,22.70
2018-07-19T01:16:41.740Z,24.23
2018-07-19T01:19:10.811Z,23.77
2018-07-19T01:21:39.896Z,21.50
2018-07-19T01:24:08.964Z,22.07
2018-07-19T01:26:38.035Z,21.80
2018-07-19T01:29:07.107Z,23.23
2018-07-19T01:31:36.188Z,23.37
2018-07-19T01:34:05.566Z,23.23
2018-07-19T01:36:34.839Z,23.90
2018-07-19T01:39:05.827Z,25.73
2018-07-19T01:41:45.510Z,25.50
2018-07-19T01:44:14.612Z,26.50
2018-07-19T01:46:44.087Z,26.63
2018-07-19T01:49:13.170Z,27.83
2018-07-19T01:51:42.259Z,30.43
2018-07-19T01:54:11.347Z,30.70
2018-07-19T01:56:40.428Z,35.53
2018-07-19T01:59:09.539Z,34.73
2018-07-19T02:01:38.613Z,34.67
2018-07-19T02:04:07.787Z,35.83
2018-07-19T02:06:36.621Z,35.50
2018-07-19T02:09:06.383Z,37.83
2018-07-19T02:11:35.451Z,36.10
2018-07-19T02:14:04.540Z,34.53
2018-07-19T02:16:33.590Z,37.40
2018-07-19T02:19:02.655Z,37.50
2018-07-19T02:21:31.723Z,36.80
2018-07-19T02:24:00.827Z,37.70
2018-07-19T02:26:29.910Z,36.87
2018-07-19T02:28:58.980Z,36.10
2018-07-19T02:31:28.040Z,43.20
2018-07-19T02:33:57.112Z,43.63
2018-07-19T02:36:26.344Z,44.07
2018-07-19T02:38:55.418Z,47.37
2018-07-19T02:41:24.484Z,45.13
2018-07-19T02:43:53.608Z,47.50
2018-07-19T02:46:22.664Z,47.03
2018-07-19T02:48:51.923Z,51.13
2018-07-19T02:51:20.991Z,49.17
2018-07-19T02:53:50.074Z,48.80
2018-07-19T02:56:19.151Z,51.47
2018-07-19T02:58:48.219Z,49.37
2018-07-19T03:01:17.921Z,51.00
2018-07-19T03:03:46.995Z,50.40
2018-07-19T03:06:16.044Z,53.70
2018-07-19T03:08:45.140Z,52.93
2018-07-19T03:11:14.207Z,49.40
2018-07-19T03:13:43.255Z,55.83
2018-07-19T03:16:12.358Z,51.90
2018-07-19T03:18:41.399Z,54.23
2018-07-19T03:21:10.459Z,53.87
2018-07-19T03:23:39.583Z,53.73
2018-07-19T03:26:08.641Z,55.13
2018-07-19T03:28:37.910Z,55.70
2018-07-19T03:31:07.340Z,53.53
2018-07-19T03:33:36.458Z,53.20
2018-07-19T03:36:05.540Z,46.40
2018-07-19T03:38:34.602Z,50.97
2018-07-19T03:41:03.680Z,53.57
2018-07-19T03:43:32.731Z,51.73
2018-07-19T03:46:01.808Z,51.80
2018-07-19T03:48:30.897Z,50.60
2018-07-19T03:50:59.956Z,52.70
2018-07-19T03:53:29.018Z,49.83
2018-07-19T03:55:57.854Z,51.63
2018-07-19T03:58:26.826Z,55.20
2018-07-19T04:00:55.899Z,52.53
2018-07-19T04:03:24.947Z,50.33
2018-07-19T04:05:54.018Z,50.40
2018-07-19T04:08:23.079Z,50.57
2018-07-19T04:10:52.134Z,46.90
2018-07-19T04:13:21.216Z,45.97
2018-07-19T04:15:50.301Z,46.07
2018-07-19T04:18:19.469Z,43.87
2018-07-19T04:20:48.390Z,46.03
2018-07-19T04:23:17.344Z,45.00
2018-07-19T04:25:46.402Z,43.30
2018-07-19T04:28:15.480Z,42.67
2018-07-19T04:30:44.652Z,41.63
2018-07-19T04:33:13.732Z,37.77
2018-07-19T04:35:42.580Z,40.37
2018-07-19T04:38:11.587Z,36.30
2018-07-19T04:40:40.655Z,35.40
2018-07-19T04:43:09.736Z,34.53
2018-07-19T04:45:38.812Z,31.13
2018-07-19T04:48:07.871Z,31.00
2018-07-19T04:50:36.951Z,30.73
2018-07-19T04:53:06.079Z,30.77
2018-07-19T04:55:35.170Z,30.03
2018-07-19T04:58:04.231Z,27.97
2018-07-19T05:00:33.326Z,26.03
2018-07-19T05:03:02.416Z,25.80
2018-07-19T05:05:31.484Z,26.80
2018-07-19T05:08:00.540Z,24.57
2018-07-19T05:10:29.615Z,23.77
2018-07-19T05:12:58.695Z,23.93
2018-07-19T05:15:27.779Z,22.27
2018-07-19T05:17:56.886Z,22.23
2018-07-19T05:20:25.950Z,21.40
2018-07-19T05:22:55.043Z,21.17
2018-07-19T05:25:24.114Z,21.03
2018-07-19T05:27:53.183Z,19.33
2018-07-19T05:30:22.283Z,19.70
2018-07-19T05:32:51.379Z,18.80
2018-07-19T05:35:20.427Z,17.77
2018-07-19T05:37:49.246Z,18.60
2018-07-19T05:40:18.193Z,17.23
2018-07-19T05:42:47.307Z,15.33
2018-07-19T05:45:16.227Z,14.90
2018-07-19T05:47:45.195Z,14.13
2018-07-19T05:50:14.290Z,12.90
2018-07-19T05:52:43.483Z,12.63
2018-07-19T05:55:12.530Z,12.80
2018-07-19T05:57:41.619Z,12.00
2018-07-19T06:00:10.687Z,10.40
2018-07-19T06:02:39.764Z,11.20
2018-07-19T06:05:08.851Z,9.70
2018-07-19T06:07:37.782Z,10.40
2018-07-19T06:10:06.708Z,9.30
2018-07-19T06:12:35.779Z,9.37
2018-07-19T06:15:06.004Z,9.70
2018-07-19T06:17:35.067Z,8.93
2018-07-19T06:20:04.212Z,9.03
2018-07-19T06:22:33.295Z,9.13
2018-07-19T06:25:02.427Z,8.13
2018-07-19T06:27:31.499Z,8.13
2018-07-19T06:30:00.582Z,8.43
2018-07-19T06:32:29.755Z,8.70
2018-07-19T06:34:58.932Z,8.60
2018-07-19T06:37:28.004Z,8.53
2018-07-19T06:39:57.055Z,8.97
2018-07-19T06:42:26.192Z,8.50
2018-07-19T06:44:55.272Z,7.93
2018-07-19T06:47:24.376Z,8.47
2018-07-19T06:49:53.639Z,8.93
2018-07-19T06:52:22.760Z,6.87
2018-07-19T06:54:51.835Z,6.90
2018-07-19T06:57:20.952Z,6.70
2018-07-19T06:59:49.999Z,7.30
2018-07-19T07:02:19.091Z,7.70
2018-07-19T07:04:48.195Z,6.97
2018-07-19T07:07:17.267Z,7.87
2018-07-19T07:09:46.332Z,7.03
2018-07-19T07:12:15.633Z,6.97
2018-07-19T07:14:44.708Z,7.03
2018-07-19T07:17:13.778Z,8.40
2018-07-19T07:19:42.846Z,7.00
2018-07-19T07:22:11.920Z,6.97
2018-07-19T07:24:41.011Z,5.53
2018-07-19T07:27:10.093Z,5.90
2018-07-19T07:29:39.225Z,6.10
2018-07-19T07:32:08.287Z,5.63
2018-07-19T07:34:37.355Z,6.00
2018-07-19T07:37:06.444Z,5.50
2018-07-19T07:39:35.734Z,5.20
2018-07-19T07:42:04.831Z,4.93
2018-07-19T07:44:33.889Z,5.30
2018-07-19T07:47:02.948Z,5.57
2018-07-19T07:49:32.131Z,4.60
2018-07-19T07:52:01.668Z,4.27
2018-07-19T07:54:30.729Z,4.17
2018-07-19T07:56:59.789Z,4.30
2018-07-19T07:59:28.606Z,4.70
2018-07-19T08:01:57.535Z,4.10
2018-07-19T08:04:26.601Z,4.33
2018-07-19T08:06:55.812Z,4.13
2018-07-19T08:09:24.856Z,3.30
2018-07-19T08:11:53.903Z,3.97
2018-07-19T08:14:22.977Z,5.20
2018-07-19T08:16:52.047Z,3.83
2018-07-19T08:19:21.115Z,3.80
2018-07-19T08:21:50.167Z,4.53
2018-07-19T08:24:19.223Z,4.10
2018-07-19T08:26:48.303Z,3.57
2018-07-19T08:29:17.338Z,3.20
2018-07-19T08:31:46.441Z,3.50
2018-07-19T08:34:15.503Z,3.90
2018-07-19T08:36:44.579Z,3.60
2018-07-19T08:39:14.589Z,3.17
2018-07-19T08:41:44.839Z,3.57
2018-07-19T08:44:13.848Z,2.90
2018-07-19T08:46:42.910Z,3.50
2018-07-19T08:49:11.992Z,3.23
2018-07-19T08:51:41.080Z,2.90
2018-07-19T08:54:10.100Z,3.23
2018-07-19T08:56:39.186Z,2.90
2018-07-19T08:59:08.224Z,3.10
2018-07-19T09:01:37.295Z,2.73
2018-07-19T09:04:06.660Z,2.80
2018-07-19T09:06:35.719Z,2.33
2018-07-19T09:09:07.265Z,2.60
2018-07-19T09:11:36.395Z,2.60
2018-07-19T09:14:05.493Z,2.47
2018-07-19T09:16:34.703Z,2.60
2018-07-19T09:19:03.523Z,2.70
2018-07-19T09:21:32.431Z,3.10
2018-07-19T09:24:01.523Z,2.63
2018-07-19T09:26:30.559Z,2.77
2018-07-19T09:28:59.620Z,2.90
2018-07-19T09:31:28.764Z,2.67
2018-07-19T09:33:57.827Z,2.13
2018-07-19T09:36:26.904Z,2.40
2018-07-19T09:38:56.034Z,2.43
2018-07-19T09:41:25.202Z,2.03
2018-07-19T09:43:54.403Z,2.57
2018-07-19T09:46:23.587Z,2.33
2018-07-19T09:48:52.814Z,2.23
2018-07-19T09:51:21.944Z,1.87
2018-07-19T09:53:51.099Z,2.30
2018-07-19T09:56:20.252Z,1.83
2018-07-19T09:58:49.596Z,2.07
2018-07-19T10:01:20.067Z,1.57
2018-07-19T10:03:50.736Z,1.57
2018-07-19T10:06:20.319Z,1.80
2018-07-19T10:08:49.543Z,1.97
2018-07-19T10:11:18.774Z,1.90
2018-07-19T10:13:48.274Z,2.27
2018-07-19T10:16:17.407Z,1.87
2018-07-19T10:18:46.553Z,2.23
2018-07-19T10:21:15.822Z,1.93
2018-07-19T10:23:44.988Z,1.80
2018-07-19T10:26:14.160Z,1.73
2018-07-19T10:28:43.416Z,1.90
2018-07-19T10:31:12.258Z,1.80
2018-07-19T10:33:41.293Z,2.13
2018-07-19T10:36:10.548Z,1.90
2018-07-19T10:38:39.807Z,2.07
2018-07-19T10:41:09.199Z,1.73
2018-07-19T10:43:38.331Z,1.80
2018-07-19T10:46:07.554Z,1.93
2018-07-19T11:20:30.191Z,1.70
2018-07-19T11:22:59.392Z,1.70
2018-07-19T11:25:28.538Z,1.60
2018-07-19T11:27:57.732Z,1.50
2018-07-19T11:30:27.375Z,1.60
2018-07-19T11:32:56.528Z,1.47
2018-07-19T11:35:25.679Z,1.50
2018-07-19T11:37:54.963Z,1.40
2018-07-19T11:40:25.059Z,1.83
2018-07-19T11:42:54.566Z,1.40
2018-07-19T11:45:23.743Z,1.50
2018-07-19T11:47:52.963Z,1.67
2018-07-19T11:50:22.136Z,1.30
2018-07-19T11:52:51.308Z,1.80
2018-07-19T11:55:20.423Z,1.50
2018-07-19T11:57:49.575Z,1.67
2018-07-19T12:00:18.939Z,1.27
2018-07-19T12:02:48.145Z,1.00
2018-07-19T12:08:40.303Z,1.10
2018-07-19T12:11:09.447Z,0.80
2018-07-19T12:13:42.087Z,1.10
2018-07-19T12:16:11.272Z,1.13
2018-07-19T13:09:00.549Z,0.77
2018-07-19T13:11:29.703Z,0.80
2018-07-19T13:13:59.819Z,0.80
2018-07-19T13:16:28.823Z,0.60
2018-07-19T13:18:57.875Z,0.60
2018-07-19T13:21:27.498Z,0.90
2018-07-19T13:23:56.712Z,0.90
2018-07-19T13:26:26.410Z,0.80
2018-07-19T13:28:55.642Z,0.80
2018-07-19T13:31:30.110Z,0.70
2018-07-19T13:34:00.216Z,0.90
2018-07-19T13:36:29.428Z,0.90
2018-07-19T13:38:58.750Z,0.93
2018-07-19T13:41:27.939Z,0.97
2018-07-19T13:43:57.224Z,1.10
2018-07-19T13:46:26.182Z,1.20
2018-07-19T13:48:55.350Z,1.13
2018-07-19T13:51:24.635Z,1.20
2018-07-19T13:54:20.890Z,1.00
2018-07-19T13:56:50.155Z,1.30
2018-07-19T13:59:19.698Z,0.83
2018-07-19T14:01:48.974Z,1.03
2018-07-19T14:04:22.008Z,1.40
2018-07-19T14:06:51.331Z,1.53
2018-07-19T14:09:20.272Z,1.30
2018-07-19T14:11:49.435Z,0.93
2018-07-19T14:14:18.381Z,1.40
2018-07-19T14:16:47.542Z,1.40
2018-07-19T14:19:16.833Z,1.20
2018-07-19T14:21:46.118Z,1.30
2018-07-19T14:24:15.503Z,1.33
2018-07-19T14:26:44.914Z,1.40
2018-07-19T14:29:14.215Z,1.00
2018-07-19T14:31:43.507Z,1.00
2018-07-19T14:34:12.792Z,1.20
2018-07-19T14:36:42.099Z,1.40
2018-07-19T14:39:12.905Z,1.20
2018-07-19T14:41:42.239Z,1.40
2018-07-19T14:44:11.559Z,1.43
2018-07-19T14:46:40.846Z,1.50
2018-07-19T14:49:10.952Z,1.60
2018-07-19T14:51:40.231Z,1.67
2018-07-19T14:54:09.537Z,1.60
2018-07-19T14:56:39.830Z,1.40
2018-07-19T14:59:09.120Z,1.23
2018-07-19T15:01:38.427Z,1.57
2018-07-19T15:04:07.710Z,1.80
2018-07-19T15:06:37.016Z,1.50
2018-07-19T15:09:09.419Z,1.70
2018-07-19T15:11:38.703Z,1.70
2018-07-19T15:14:08.236Z,1.93
2018-07-19T15:16:37.756Z,1.47
2018-07-19T15:19:07.072Z,1.70
2018-07-19T15:21:36.351Z,1.60
2018-07-19T15:24:05.660Z,1.70
2018-07-19T15:26:35.574Z,1.60
2018-07-19T15:29:04.894Z,1.90
2018-07-19T15:31:34.235Z,1.50
2018-07-19T15:34:03.500Z,1.63
2018-07-19T15:36:33.507Z,1.70
2018-07-19T15:39:02.845Z,1.50
2018-07-19T15:41:32.227Z,1.90
2018-07-19T15:44:01.196Z,1.50
2018-07-19T15:46:31.022Z,1.70
2018-07-19T15:49:00.343Z,1.80
2018-07-19T15:51:29.787Z,1.90
2018-07-19T15:53:59.126Z,2.23
2018-07-19T15:56:28.496Z,1.87
2018-07-19T15:58:57.839Z,1.70
2018-07-19T16:01:27.146Z,1.60
2018-07-19T16:03:56.511Z,1.80
2018-07-19T16:06:25.811Z,2.20
2018-07-19T16:08:55.226Z,1.50
2018-07-19T16:11:24.564Z,2.33
2018-07-19T16:13:53.879Z,1.90
2018-07-19T16:16:23.139Z,1.90
2018-07-19T16:18:52.439Z,2.10
2018-07-19T16:21:21.687Z,2.17
2018-07-19T16:23:51.760Z,2.90
2018-07-19T16:26:21.051Z,2.90
2018-07-19T16:28:50.379Z,1.53
2018-07-19T16:31:20.204Z,1.90
2018-07-19T16:33:50.047Z,1.50
2018-07-19T16:49:58.368Z,1.70
2018-07-19T16:52:27.635Z,1.73
2018-07-19T16:54:56.903Z,1.33
2018-07-19T16:57:25.867Z,1.30
2018-07-19T16:59:54.999Z,1.50
2018-07-19T17:02:24.321Z,1.87
2018-07-19T17:04:53.375Z,1.30
2018-07-19T17:07:22.431Z,1.20
2018-07-19T17:09:51.487Z,1.43
2018-07-19T17:12:20.532Z,1.20
2018-07-19T17:14:49.599Z,1.20
2018-07-19T17:17:18.702Z,1.23
2018-07-19T17:19:47.703Z,1.50
2018-07-19T17:22:16.767Z,1.50
2018-07-19T17:24:45.848Z,1.27
2018-07-19T17:27:15.248Z,1.63
2018-07-19T17:29:44.299Z,1.50
2018-07-19T17:32:13.365Z,1.40
2018-07-19T17:34:42.436Z,1.60
2018-07-19T17:37:11.344Z,1.43
2018-07-19T17:39:40.271Z,1.70
2018-07-19T17:42:09.320Z,1.60
2018-07-19T17:44:38.226Z,1.47
2018-07-19T17:47:07.157Z,1.83
2018-07-19T17:49:36.225Z,1.93
2018-07-19T17:52:05.278Z,2.10
2018-07-19T17:54:34.395Z,1.70
2018-07-19T17:57:03.400Z,1.90
2018-07-19T17:59:32.474Z,1.80
2018-07-19T18:02:01.511Z,2.03
2018-07-19T18:51:14.310Z,2.97
2018-07-19T18:53:43.392Z,3.60
2018-07-19T18:56:12.495Z,3.20
2018-07-19T18:58:41.572Z,3.20
2018-07-19T19:01:10.702Z,3.20
2018-07-19T19:03:39.714Z,3.30
2018-07-19T19:06:08.763Z,3.43
2018-07-19T19:08:37.824Z,3.20
2018-07-19T19:11:06.891Z,3.30
2018-07-19T19:13:35.955Z,3.13
2018-07-19T19:16:05.054Z,3.87
2018-07-19T19:18:34.106Z,3.70
2018-07-19T19:21:03.182Z,3.20
2018-07-19T19:23:32.235Z,3.53
2018-07-19T19:26:01.288Z,3.67
2018-07-19T19:28:30.460Z,3.20
2018-07-19T19:30:59.531Z,3.57
2018-07-19T19:33:28.330Z,3.60
2018-07-19T19:35:56.986Z,3.20
2018-07-19T19:38:25.677Z,3.70
2018-07-19T19:40:54.379Z,3.77
2018-07-19T19:43:23.023Z,4.10
2018-07-19T19:45:51.720Z,3.80
2018-07-19T19:48:20.373Z,4.33
2018-07-19T19:50:49.102Z,4.47
2018-07-19T19:53:17.774Z,4.10
2018-07-19T19:55:46.710Z,4.30
2018-07-19T19:58:15.394Z,4.40
2018-07-19T20:00:44.093Z,4.50
2018-07-19T20:03:12.855Z,4.93
2018-07-19T20:05:41.838Z,4.00
2018-07-19T20:08:10.886Z,4.80
2018-07-19T20:10:40.005Z,4.53
2018-07-19T20:13:09.055Z,4.57
2018-07-19T20:15:38.122Z,4.20
2018-07-19T20:18:07.179Z,4.90
2018-07-19T20:20:36.328Z,5.20
2018-07-19T20:23:05.136Z,4.40
2018-07-19T20:25:34.095Z,4.60
2018-07-19T20:28:03.011Z,5.03
2018-07-19T20:30:32.170Z,4.70
2018-07-19T20:33:01.209Z,5.40
2018-07-19T20:35:30.299Z,5.00
2018-07-19T20:37:59.370Z,4.97
2018-07-19T20:40:28.456Z,4.43
2018-07-19T20:42:57.542Z,5.10
2018-07-19T20:45:26.655Z,5.07
2018-07-19T20:47:55.743Z,5.07
2018-07-19T20:50:24.824Z,4.90
2018-07-19T20:52:53.610Z,4.87
2018-07-19T20:55:22.554Z,4.97
2018-07-19T20:57:51.685Z,5.53
2018-07-19T21:00:20.750Z,5.47
2018-07-19T21:02:49.823Z,5.60
2018-07-19T21:05:19.392Z,5.50
2018-07-19T21:07:48.918Z,5.40
2018-07-19T21:10:18.579Z,5.67
2018-07-19T21:12:47.732Z,6.07
2018-07-19T21:15:16.787Z,6.00
2018-07-19T21:17:45.928Z,5.50
2018-07-19T21:20:15.002Z,5.87
2018-07-19T21:22:44.067Z,5.93
2018-07-19T21:25:13.135Z,5.97
2018-07-19T21:27:41.931Z,6.47
2018-07-19T21:30:10.855Z,6.37
2018-07-19T21:32:39.933Z,5.53
2018-07-19T21:35:08.993Z,6.13
2018-07-19T21:37:38.076Z,6.60
2018-07-19T21:40:07.147Z,6.27
2018-07-19T21:42:36.395Z,6.20
2018-07-19T21:45:05.659Z,6.23
2018-07-19T21:47:34.756Z,6.77
2018-07-19T21:50:04.804Z,6.43
2018-07-19T21:52:33.881Z,6.63
2018-07-19T21:55:03.085Z,6.90
2018-07-19T21:57:32.168Z,6.37
2018-07-19T22:00:00.940Z,6.80
2018-07-19T22:02:29.897Z,7.00
2018-07-19T22:04:59.023Z,7.13
2018-07-19T22:07:31.134Z,7.87
2018-07-19T22:10:02.375Z,7.60
2018-07-19T22:12:31.464Z,7.77
2018-07-19T22:15:00.523Z,7.53
2018-07-19T22:17:29.570Z,8.87
2018-07-19T22:19:58.660Z,8.40
2018-07-19T22:22:27.744Z,8.17
2018-07-19T22:24:56.799Z,8.37
2018-07-19T22:27:25.871Z,8.30
2018-07-19T22:29:54.663Z,8.10
2018-07-19T22:32:23.611Z,8.00
2018-07-19T22:34:52.696Z,8.33
2018-07-19T22:37:21.761Z,7.93
2018-07-19T22:39:50.580Z,8.17
2018-07-19T22:42:19.541Z,8.13
2018-07-19T22:44:48.707Z,8.33
2018-07-19T22:47:17.787Z,8.13
2018-07-19T22:49:46.849Z,7.80
2018-07-19T22:52:15.924Z,8.37
2018-07-19T22:54:45.006Z,7.77
2018-07-19T22:57:14.068Z,7.50
2018-07-19T22:59:43.128Z,8.20
2018-07-19T23:02:12.212Z,7.97
2018-07-19T23:04:41.257Z,7.17
2018-07-19T23:07:10.492Z,7.17
2018-07-19T23:09:39.307Z,7.27
2018-07-19T23:12:08.410Z,7.73
2018-07-19T23:14:37.483Z,8.93
2018-07-19T23:17:06.564Z,7.80
2018-07-19T23:19:35.677Z,7.97
2018-07-19T23:22:04.722Z,8.00
2018-07-19T23:24:33.787Z,8.10
2018-07-19T23:27:02.875Z,8.40
2018-07-19T23:29:31.957Z,8.47
2018-07-19T23:32:01.040Z,7.57
2018-07-19T23:34:30.333Z,8.80
2018-07-19T23:37:03.226Z,8.13
2018-07-19T23:39:38.619Z,8.73
2018-07-19T23:42:15.449Z,8.33
2018-07-19T23:45:25.582Z,9.30
2018-07-19T23:47:55.491Z,8.50
2018-07-19T23:50:24.296Z,8.93
2018-07-19T23:52:53.248Z,8.83
2018-07-19T23:55:22.315Z,9.23
2018-07-19T23:57:51.390Z,9.37
